Avoca, Arkansas
Current Conditions -  °F | °C
As of 6:57 AM on Saturday 01 Nov 2014 (Local Time) from KROG Reporting Station
Clear Clear  
Wind Chill: 27°   Ceiling: Unl
Heat Index: 27°   Visibility: 10mi
Dew Point: 21°   Wind: 3mph
Humidity: 78%   Direction: 70°ENE
Pressure: 30.44"   Gusts: NA
Location:  36.4°N, 94.07°W
Report Text: KROG 011157Z AUTO 07003KT 10SM CLR M03/M06 A3044 RMK AO2 SLP317 T10281061 11006 21039 51006 FZRANO TSNO $
Loading
Personal Weather Stations






























Interactive Weather Map
Tropical Storm Tracking
New forecast layout! Learn more

10-Day Weather Forecast

Advertisements
Track Severe Weather on mobile